sensor_id;sensor_type;location;lat;lon;timestamp;P1;durP1;ratioP1;P2;durP2;ratioP2
8913;SDS011;4492;48.736;9.092;2023-05-23T00:00:24;37.67;;;22.63;;
8913;SDS011;4492;48.736;9.092;2023-05-23T00:02:49;37.97;;;23.23;;
8913;SDS011;4492;48.736;9.092;2023-05-23T00:05:15;52.37;;;26.30;;
8913;SDS011;4492;48.736;9.092;2023-05-23T00:07:42;38.97;;;24.73;;
8913;SDS011;4492;48.736;9.092;2023-05-23T00:10:08;45.57;;;26.17;;
8913;SDS011;4492;48.736;9.092;2023-05-23T00:12:34;47.27;;;27.00;;
8913;SDS011;4492;48.736;9.092;2023-05-23T00:15:01;44.00;;;26.70;;
8913;SDS011;4492;48.736;9.092;2023-05-23T00:17:27;48.10;;;27.00;;
8913;SDS011;4492;48.736;9.092;2023-05-23T00:19:53;47.00;;;27.60;;
8913;SDS011;4492;48.736;9.092;2023-05-23T00:22:19;43.43;;;26.33;;
8913;SDS011;4492;48.736;9.092;2023-05-23T00:24:45;47.80;;;28.43;;
8913;SDS011;4492;48.736;9.092;2023-05-23T00:27:11;49.07;;;27.57;;
8913;SDS011;4492;48.736;9.092;2023-05-23T00:29:37;49.67;;;30.20;;
8913;SDS011;4492;48.736;9.092;2023-05-23T00:32:02;58.20;;;33.53;;
8913;SDS011;4492;48.736;9.092;2023-05-23T00:34:28;60.93;;;33.57;;
8913;SDS011;4492;48.736;9.092;2023-05-23T00:36:53;57.97;;;33.03;;
8913;SDS011;4492;48.736;9.092;2023-05-23T00:39:19;61.40;;;33.97;;
8913;SDS011;4492;48.736;9.092;2023-05-23T00:41:48;59.53;;;33.90;;
8913;SDS011;4492;48.736;9.092;2023-05-23T00:44:14;63.50;;;34.00;;
8913;SDS011;4492;48.736;9.092;2023-05-23T00:46:40;58.67;;;34.37;;
8913;SDS011;4492;48.736;9.092;2023-05-23T00:49:09;63.53;;;34.20;;
8913;SDS011;4492;48.736;9.092;2023-05-23T00:51:35;61.63;;;34.97;;
8913;SDS011;4492;48.736;9.092;2023-05-23T00:54:02;62.30;;;33.90;;
8913;SDS011;4492;48.736;9.092;2023-05-23T00:56:28;68.73;;;35.83;;
8913;SDS011;4492;48.736;9.092;2023-05-23T00:58:54;68.50;;;37.57;;
8913;SDS011;4492;48.736;9.092;2023-05-23T01:01:20;72.20;;;37.27;;
8913;SDS011;4492;48.736;9.092;2023-05-23T01:03:46;68.53;;;37.00;;
8913;SDS011;4492;48.736;9.092;2023-05-23T01:06:12;78.63;;;39.40;;
8913;SDS011;4492;48.736;9.092;2023-05-23T01:08:38;80.53;;;39.77;;
8913;SDS011;4492;48.736;9.092;2023-05-23T01:11:07;79.77;;;39.37;;
8913;SDS011;4492;48.736;9.092;2023-05-23T01:13:50;78.83;;;39.10;;
8913;SDS011;4492;48.736;9.092;2023-05-23T01:16:28;77.27;;;39.60;;
8913;SDS011;4492;48.736;9.092;2023-05-23T01:19:19;78.87;;;40.30;;
8913;SDS011;4492;48.736;9.092;2023-05-23T01:22:20;75.90;;;37.27;;
8913;SDS011;4492;48.736;9.092;2023-05-23T01:25:06;81.47;;;40.33;;
8913;SDS011;4492;48.736;9.092;2023-05-23T01:27:43;85.10;;;41.53;;
8913;SDS011;4492;48.736;9.092;2023-05-23T01:30:16;85.57;;;43.07;;
8913;SDS011;4492;48.736;9.092;2023-05-23T01:32:45;90.07;;;44.20;;
8913;SDS011;4492;48.736;9.092;2023-05-23T01:35:12;86.77;;;43.30;;
8913;SDS011;4492;48.736;9.092;2023-05-23T01:37:43;93.87;;;45.73;;
8913;SDS011;4492;48.736;9.092;2023-05-23T01:40:09;90.40;;;44.67;;
8913;SDS011;4492;48.736;9.092;2023-05-23T01:42:35;95.80;;;45.93;;
8913;SDS011;4492;48.736;9.092;2023-05-23T01:45:00;103.07;;;46.03;;
8913;SDS011;4492;48.736;9.092;2023-05-23T01:47:26;99.47;;;46.73;;
8913;SDS011;4492;48.736;9.092;2023-05-23T01:49:52;102.43;;;49.20;;
8913;SDS011;4492;48.736;9.092;2023-05-23T01:52:19;99.00;;;47.10;;
8913;SDS011;4492;48.736;9.092;2023-05-23T01:54:45;108.03;;;50.87;;
8913;SDS011;4492;48.736;9.092;2023-05-23T01:57:13;106.90;;;48.00;;
8913;SDS011;4492;48.736;9.092;2023-05-23T01:59:38;112.53;;;50.97;;
8913;SDS011;4492;48.736;9.092;2023-05-23T02:02:04;109.13;;;47.13;;
8913;SDS011;4492;48.736;9.092;2023-05-23T02:04:30;105.50;;;50.33;;
8913;SDS011;4492;48.736;9.092;2023-05-23T02:06:56;106.37;;;50.30;;
8913;SDS011;4492;48.736;9.092;2023-05-23T02:09:21;106.87;;;50.00;;
8913;SDS011;4492;48.736;9.092;2023-05-23T02:11:47;115.83;;;53.23;;
8913;SDS011;4492;48.736;9.092;2023-05-23T02:14:12;101.97;;;49.87;;
8913;SDS011;4492;48.736;9.092;2023-05-23T02:16:38;115.30;;;53.23;;
8913;SDS011;4492;48.736;9.092;2023-05-23T02:19:03;114.10;;;51.80;;
8913;SDS011;4492;48.736;9.092;2023-05-23T02:21:29;107.07;;;52.63;;
8913;SDS011;4492;48.736;9.092;2023-05-23T02:23:55;114.23;;;53.50;;
8913;SDS011;4492;48.736;9.092;2023-05-23T02:26:21;112.60;;;52.97;;
8913;SDS011;4492;48.736;9.092;2023-05-23T02:28:46;114.67;;;53.43;;
8913;SDS011;4492;48.736;9.092;2023-05-23T02:31:12;114.43;;;52.07;;
8913;SDS011;4492;48.736;9.092;2023-05-23T02:33:38;124.47;;;54.10;;
8913;SDS011;4492;48.736;9.092;2023-05-23T02:36:03;114.07;;;52.20;;
8913;SDS011;4492;48.736;9.092;2023-05-23T02:38:29;114.00;;;52.67;;
8913;SDS011;4492;48.736;9.092;2023-05-23T02:40:54;119.37;;;52.33;;
8913;SDS011;4492;48.736;9.092;2023-05-23T02:43:21;106.10;;;49.47;;
8913;SDS011;4492;48.736;9.092;2023-05-23T02:45:47;105.27;;;51.37;;
8913;SDS011;4492;48.736;9.092;2023-05-23T02:48:13;114.73;;;53.83;;
8913;SDS011;4492;48.736;9.092;2023-05-23T02:50:38;111.53;;;54.20;;
8913;SDS011;4492;48.736;9.092;2023-05-23T02:53:04;111.27;;;52.70;;
8913;SDS011;4492;48.736;9.092;2023-05-23T02:55:29;117.03;;;54.20;;
8913;SDS011;4492;48.736;9.092;2023-05-23T02:57:55;122.27;;;56.20;;
8913;SDS011;4492;48.736;9.092;2023-05-23T03:00:22;106.33;;;52.70;;
8913;SDS011;4492;48.736;9.092;2023-05-23T03:02:48;105.00;;;52.97;;
8913;SDS011;4492;48.736;9.092;2023-05-23T03:05:14;108.07;;;53.43;;
8913;SDS011;4492;48.736;9.092;2023-05-23T03:07:39;108.83;;;53.03;;
8913;SDS011;4492;48.736;9.092;2023-05-23T03:10:05;109.63;;;54.77;;
8913;SDS011;4492;48.736;9.092;2023-05-23T03:12:31;105.10;;;53.17;;
8913;SDS011;4492;48.736;9.092;2023-05-23T03:14:56;105.43;;;52.97;;
8913;SDS011;4492;48.736;9.092;2023-05-23T03:17:23;98.33;;;52.17;;
8913;SDS011;4492;48.736;9.092;2023-05-23T03:19:50;101.70;;;51.60;;
8913;SDS011;4492;48.736;9.092;2023-05-23T03:22:15;99.67;;;51.47;;
8913;SDS011;4492;48.736;9.092;2023-05-23T03:24:41;93.60;;;49.97;;
8913;SDS011;4492;48.736;9.092;2023-05-23T03:27:07;93.43;;;49.83;;
8913;SDS011;4492;48.736;9.092;2023-05-23T03:29:32;92.87;;;50.23;;
8913;SDS011;4492;48.736;9.092;2023-05-23T03:31:58;89.50;;;49.60;;
8913;SDS011;4492;48.736;9.092;2023-05-23T03:34:23;88.10;;;48.47;;
8913;SDS011;4492;48.736;9.092;2023-05-23T03:36:50;88.10;;;47.77;;
8913;SDS011;4492;48.736;9.092;2023-05-23T03:39:16;86.27;;;46.73;;
8913;SDS011;4492;48.736;9.092;2023-05-23T03:41:42;86.27;;;49.37;;
8913;SDS011;4492;48.736;9.092;2023-05-23T03:44:08;83.77;;;48.23;;
8913;SDS011;4492;48.736;9.092;2023-05-23T03:46:33;81.90;;;45.40;;
8913;SDS011;4492;48.736;9.092;2023-05-23T03:48:59;80.10;;;47.13;;
8913;SDS011;4492;48.736;9.092;2023-05-23T03:51:24;82.37;;;47.17;;
8913;SDS011;4492;48.736;9.092;2023-05-23T03:53:50;79.37;;;46.07;;
8913;SDS011;4492;48.736;9.092;2023-05-23T03:56:15;82.47;;;46.27;;
8913;SDS011;4492;48.736;9.092;2023-05-23T03:58:41;83.97;;;46.13;;
8913;SDS011;4492;48.736;9.092;2023-05-23T04:01:06;81.37;;;45.67;;
8913;SDS011;4492;48.736;9.092;2023-05-23T04:03:33;78.63;;;46.80;;
8913;SDS011;4492;48.736;9.092;2023-05-23T04:05:59;83.33;;;46.13;;
8913;SDS011;4492;48.736;9.092;2023-05-23T04:08:25;72.53;;;43.80;;
8913;SDS011;4492;48.736;9.092;2023-05-23T04:10:50;77.10;;;46.23;;
8913;SDS011;4492;48.736;9.092;2023-05-23T04:13:16;79.23;;;45.83;;
8913;SDS011;4492;48.736;9.092;2023-05-23T04:15:41;77.63;;;43.97;;
8913;SDS011;4492;48.736;9.092;2023-05-23T04:18:07;81.37;;;44.50;;
8913;SDS011;4492;48.736;9.092;2023-05-23T04:20:33;78.13;;;46.27;;
8913;SDS011;4492;48.736;9.092;2023-05-23T04:22:59;71.07;;;43.40;;
8913;SDS011;4492;48.736;9.092;2023-05-23T04:25:24;74.73;;;44.40;;
8913;SDS011;4492;48.736;9.092;2023-05-23T04:27:50;72.10;;;44.20;;
8913;SDS011;4492;48.736;9.092;2023-05-23T04:30:16;72.57;;;44.37;;
8913;SDS011;4492;48.736;9.092;2023-05-23T04:32:42;71.93;;;43.23;;
8913;SDS011;4492;48.736;9.092;2023-05-23T04:35:08;74.07;;;45.03;;
8913;SDS011;4492;48.736;9.092;2023-05-23T04:37:34;70.20;;;43.07;;
8913;SDS011;4492;48.736;9.092;2023-05-23T04:40:01;71.70;;;43.83;;
8913;SDS011;4492;48.736;9.092;2023-05-23T04:42:28;73.37;;;44.70;;
8913;SDS011;4492;48.736;9.092;2023-05-23T04:44:54;63.87;;;41.73;;
8913;SDS011;4492;48.736;9.092;2023-05-23T04:47:22;68.57;;;42.97;;
8913;SDS011;4492;48.736;9.092;2023-05-23T04:49:52;62.73;;;41.33;;
8913;SDS011;4492;48.736;9.092;2023-05-23T04:52:19;63.60;;;42.20;;
8913;SDS011;4492;48.736;9.092;2023-05-23T04:54:44;66.87;;;43.50;;
8913;SDS011;4492;48.736;9.092;2023-05-23T04:57:10;60.43;;;40.80;;
8913;SDS011;4492;48.736;9.092;2023-05-23T04:59:37;66.83;;;43.47;;
8913;SDS011;4492;48.736;9.092;2023-05-23T05:02:02;63.20;;;41.07;;
8913;SDS011;4492;48.736;9.092;2023-05-23T05:04:29;62.90;;;40.43;;
8913;SDS011;4492;48.736;9.092;2023-05-23T05:06:55;56.27;;;39.77;;
8913;SDS011;4492;48.736;9.092;2023-05-23T05:09:21;63.57;;;41.80;;
8913;SDS011;4492;48.736;9.092;2023-05-23T05:11:47;58.47;;;39.83;;
8913;SDS011;4492;48.736;9.092;2023-05-23T05:14:12;63.20;;;41.37;;
8913;SDS011;4492;48.736;9.092;2023-05-23T05:16:38;66.63;;;42.07;;
8913;SDS011;4492;48.736;9.092;2023-05-23T05:19:03;61.87;;;39.27;;
8913;SDS011;4492;48.736;9.092;2023-05-23T05:21:29;59.47;;;41.27;;
8913;SDS011;4492;48.736;9.092;2023-05-23T05:23:55;56.73;;;39.47;;
8913;SDS011;4492;48.736;9.092;2023-05-23T05:26:21;61.93;;;41.23;;
8913;SDS011;4492;48.736;9.092;2023-05-23T05:28:47;61.70;;;39.60;;
8913;SDS011;4492;48.736;9.092;2023-05-23T05:31:13;59.13;;;41.30;;
8913;SDS011;4492;48.736;9.092;2023-05-23T05:33:39;61.37;;;42.47;;
8913;SDS011;4492;48.736;9.092;2023-05-23T05:36:05;67.50;;;42.63;;
8913;SDS011;4492;48.736;9.092;2023-05-23T05:38:31;59.53;;;40.97;;
8913;SDS011;4492;48.736;9.092;2023-05-23T05:40:57;63.80;;;41.27;;
8913;SDS011;4492;48.736;9.092;2023-05-23T05:43:24;57.63;;;41.27;;
8913;SDS011;4492;48.736;9.092;2023-05-23T05:45:50;62.13;;;42.23;;
8913;SDS011;4492;48.736;9.092;2023-05-23T05:48:16;60.80;;;41.47;;
8913;SDS011;4492;48.736;9.092;2023-05-23T05:50:42;58.57;;;40.33;;
8913;SDS011;4492;48.736;9.092;2023-05-23T05:53:09;60.07;;;42.50;;
8913;SDS011;4492;48.736;9.092;2023-05-23T05:55:35;61.63;;;42.70;;
8913;SDS011;4492;48.736;9.092;2023-05-23T05:58:01;60.67;;;42.57;;
8913;SDS011;4492;48.736;9.092;2023-05-23T06:00:27;54.37;;;38.70;;
8913;SDS011;4492;48.736;9.092;2023-05-23T06:02:53;57.90;;;40.53;;
8913;SDS011;4492;48.736;9.092;2023-05-23T06:05:21;57.43;;;39.97;;
8913;SDS011;4492;48.736;9.092;2023-05-23T06:07:47;60.43;;;41.17;;
8913;SDS011;4492;48.736;9.092;2023-05-23T06:10:14;56.03;;;41.33;;
8913;SDS011;4492;48.736;9.092;2023-05-23T06:12:40;54.47;;;40.03;;
8913;SDS011;4492;48.736;9.092;2023-05-23T06:15:06;60.37;;;41.40;;
8913;SDS011;4492;48.736;9.092;2023-05-23T06:17:32;61.50;;;41.50;;
8913;SDS011;4492;48.736;9.092;2023-05-23T06:19:57;59.37;;;43.50;;
8913;SDS011;4492;48.736;9.092;2023-05-23T06:22:23;62.77;;;42.67;;
8913;SDS011;4492;48.736;9.092;2023-05-23T06:24:48;57.37;;;41.10;;
8913;SDS011;4492;48.736;9.092;2023-05-23T06:27:14;57.50;;;39.93;;
8913;SDS011;4492;48.736;9.092;2023-05-23T06:29:39;55.53;;;39.37;;
8913;SDS011;4492;48.736;9.092;2023-05-23T06:32:05;55.20;;;40.53;;
8913;SDS011;4492;48.736;9.092;2023-05-23T06:34:30;54.13;;;38.87;;
8913;SDS011;4492;48.736;9.092;2023-05-23T06:36:56;53.40;;;38.47;;
8913;SDS011;4492;48.736;9.092;2023-05-23T06:39:21;54.97;;;37.90;;
8913;SDS011;4492;48.736;9.092;2023-05-23T06:41:47;51.60;;;36.53;;
8913;SDS011;4492;48.736;9.092;2023-05-23T06:44:13;47.97;;;36.40;;
8913;SDS011;4492;48.736;9.092;2023-05-23T06:46:39;48.23;;;34.50;;
8913;SDS011;4492;48.736;9.092;2023-05-23T06:49:04;45.27;;;34.17;;
8913;SDS011;4492;48.736;9.092;2023-05-23T06:51:30;44.67;;;34.10;;
8913;SDS011;4492;48.736;9.092;2023-05-23T06:53:55;46.33;;;32.80;;
8913;SDS011;4492;48.736;9.092;2023-05-23T06:56:21;46.07;;;33.13;;
8913;SDS011;4492;48.736;9.092;2023-05-23T06:58:47;46.57;;;33.40;;
8913;SDS011;4492;48.736;9.092;2023-05-23T07:01:13;41.53;;;32.20;;
8913;SDS011;4492;48.736;9.092;2023-05-23T07:03:38;46.47;;;33.07;;
8913;SDS011;4492;48.736;9.092;2023-05-23T07:06:05;47.70;;;33.07;;
8913;SDS011;4492;48.736;9.092;2023-05-23T07:08:32;45.40;;;32.80;;
8913;SDS011;4492;48.736;9.092;2023-05-23T07:10:57;44.17;;;32.73;;
8913;SDS011;4492;48.736;9.092;2023-05-23T07:13:23;43.83;;;32.13;;
8913;SDS011;4492;48.736;9.092;2023-05-23T07:15:48;40.07;;;32.20;;
8913;SDS011;4492;48.736;9.092;2023-05-23T07:18:14;46.83;;;32.70;;
8913;SDS011;4492;48.736;9.092;2023-05-23T07:20:40;46.80;;;31.93;;
8913;SDS011;4492;48.736;9.092;2023-05-23T07:23:05;41.33;;;31.13;;
8913;SDS011;4492;48.736;9.092;2023-05-23T07:25:31;49.00;;;34.07;;
8913;SDS011;4492;48.736;9.092;2023-05-23T07:27:56;45.13;;;34.20;;
8913;SDS011;4492;48.736;9.092;2023-05-23T07:30:22;44.47;;;33.63;;
8913;SDS011;4492;48.736;9.092;2023-05-23T07:32:47;46.33;;;33.17;;
8913;SDS011;4492;48.736;9.092;2023-05-23T07:35:14;44.93;;;33.53;;
8913;SDS011;4492;48.736;9.092;2023-05-23T07:37:40;49.10;;;35.43;;
8913;SDS011;4492;48.736;9.092;2023-05-23T07:40:06;54.07;;;37.33;;
8913;SDS011;4492;48.736;9.092;2023-05-23T07:42:33;52.57;;;36.90;;
8913;SDS011;4492;48.736;9.092;2023-05-23T07:44:59;53.90;;;37.00;;
8913;SDS011;4492;48.736;9.092;2023-05-23T07:47:25;53.73;;;38.60;;
8913;SDS011;4492;48.736;9.092;2023-05-23T07:49:51;54.53;;;39.00;;
8913;SDS011;4492;48.736;9.092;2023-05-23T07:52:17;52.83;;;37.77;;
8913;SDS011;4492;48.736;9.092;2023-05-23T07:54:43;51.90;;;37.90;;
8913;SDS011;4492;48.736;9.092;2023-05-23T07:57:08;51.50;;;37.20;;
8913;SDS011;4492;48.736;9.092;2023-05-23T07:59:34;51.17;;;36.10;;
8913;SDS011;4492;48.736;9.092;2023-05-23T08:02:00;50.27;;;36.10;;
8913;SDS011;4492;48.736;9.092;2023-05-23T08:04:27;46.57;;;34.60;;
8913;SDS011;4492;48.736;9.092;2023-05-23T08:06:52;46.67;;;34.83;;
8913;SDS011;4492;48.736;9.092;2023-05-23T08:09:20;45.70;;;34.53;;
8913;SDS011;4492;48.736;9.092;2023-05-23T08:11:46;49.73;;;35.73;;
8913;SDS011;4492;48.736;9.092;2023-05-23T08:14:12;47.63;;;33.13;;
8913;SDS011;4492;48.736;9.092;2023-05-23T08:16:37;42.73;;;33.97;;
8913;SDS011;4492;48.736;9.092;2023-05-23T08:19:03;44.43;;;32.63;;
8913;SDS011;4492;48.736;9.092;2023-05-23T08:21:28;39.30;;;31.33;;
8913;SDS011;4492;48.736;9.092;2023-05-23T08:23:54;40.20;;;30.50;;
8913;SDS011;4492;48.736;9.092;2023-05-23T08:26:19;40.57;;;32.37;;
8913;SDS011;4492;48.736;9.092;2023-05-23T08:28:45;38.17;;;29.73;;
8913;SDS011;4492;48.736;9.092;2023-05-23T08:31:11;40.13;;;28.67;;
8913;SDS011;4492;48.736;9.092;2023-05-23T08:33:36;37.07;;;28.47;;
8913;SDS011;4492;48.736;9.092;2023-05-23T08:36:02;40.00;;;28.67;;
8913;SDS011;4492;48.736;9.092;2023-05-23T08:38:28;37.03;;;27.50;;
8913;SDS011;4492;48.736;9.092;2023-05-23T08:40:53;40.03;;;28.23;;
8913;SDS011;4492;48.736;9.092;2023-05-23T08:43:20;37.23;;;27.90;;
8913;SDS011;4492;48.736;9.092;2023-05-23T08:45:46;38.03;;;27.57;;
8913;SDS011;4492;48.736;9.092;2023-05-23T08:48:15;35.77;;;25.83;;
8913;SDS011;4492;48.736;9.092;2023-05-23T08:50:44;33.00;;;25.43;;
8913;SDS011;4492;48.736;9.092;2023-05-23T08:53:11;31.60;;;24.73;;
8913;SDS011;4492;48.736;9.092;2023-05-23T08:55:44;33.37;;;25.43;;
8913;SDS011;4492;48.736;9.092;2023-05-23T08:58:10;32.97;;;24.73;;
8913;SDS011;4492;48.736;9.092;2023-05-23T09:00:37;32.00;;;25.03;;
8913;SDS011;4492;48.736;9.092;2023-05-23T09:03:03;34.03;;;24.50;;
8913;SDS011;4492;48.736;9.092;2023-05-23T09:05:28;31.50;;;24.37;;
8913;SDS011;4492;48.736;9.092;2023-05-23T09:07:54;30.37;;;24.67;;
8913;SDS011;4492;48.736;9.092;2023-05-23T09:10:20;33.00;;;23.60;;
8913;SDS011;4492;48.736;9.092;2023-05-23T09:12:46;34.73;;;24.17;;
8913;SDS011;4492;48.736;9.092;2023-05-23T09:15:12;28.67;;;22.03;;
8913;SDS011;4492;48.736;9.092;2023-05-23T09:17:38;29.83;;;23.17;;
8913;SDS011;4492;48.736;9.092;2023-05-23T09:20:22;27.20;;;22.63;;
8913;SDS011;4492;48.736;9.092;2023-05-23T09:22:47;29.47;;;22.17;;
8913;SDS011;4492;48.736;9.092;2023-05-23T09:25:13;30.40;;;21.73;;
8913;SDS011;4492;48.736;9.092;2023-05-23T09:27:40;27.77;;;19.90;;
8913;SDS011;4492;48.736;9.092;2023-05-23T09:30:07;24.47;;;19.63;;
8913;SDS011;4492;48.736;9.092;2023-05-23T09:32:34;22.90;;;17.60;;
8913;SDS011;4492;48.736;9.092;2023-05-23T09:35:01;23.30;;;18.80;;
8913;SDS011;4492;48.736;9.092;2023-05-23T09:37:29;19.33;;;16.33;;
8913;SDS011;4492;48.736;9.092;2023-05-23T09:39:55;21.17;;;16.63;;
8913;SDS011;4492;48.736;9.092;2023-05-23T09:42:21;17.40;;;15.47;;
8913;SDS011;4492;48.736;9.092;2023-05-23T09:44:48;17.33;;;15.20;;
8913;SDS011;4492;48.736;9.092;2023-05-23T09:47:17;17.93;;;14.47;;
8913;SDS011;4492;48.736;9.092;2023-05-23T09:49:42;18.93;;;14.27;;
8913;SDS011;4492;48.736;9.092;2023-05-23T09:52:09;17.53;;;14.30;;
8913;SDS011;4492;48.736;9.092;2023-05-23T09:54:35;16.50;;;13.70;;
8913;SDS011;4492;48.736;9.092;2023-05-23T09:57:01;17.27;;;14.17;;
8913;SDS011;4492;48.736;9.092;2023-05-23T09:59:28;15.00;;;12.00;;
8913;SDS011;4492;48.736;9.092;2023-05-23T10:01:57;15.50;;;12.13;;
8913;SDS011;4492;48.736;9.092;2023-05-23T10:04:26;13.10;;;11.57;;
8913;SDS011;4492;48.736;9.092;2023-05-23T10:07:00;15.07;;;11.17;;
8913;SDS011;4492;48.736;9.092;2023-05-23T10:09:32;14.50;;;10.80;;
8913;SDS011;4492;48.736;9.092;2023-05-23T10:15:06;14.67;;;10.70;;
8913;SDS011;4492;48.736;9.092;2023-05-23T10:17:35;12.03;;;10.80;;
8913;SDS011;4492;48.736;9.092;2023-05-23T10:20:10;12.20;;;10.27;;
8913;SDS011;4492;48.736;9.092;2023-05-23T10:22:40;11.10;;;9.87;;
8913;SDS011;4492;48.736;9.092;2023-05-23T10:25:06;10.47;;;9.40;;
8913;SDS011;4492;48.736;9.092;2023-05-23T10:27:34;10.63;;;8.87;;
8913;SDS011;4492;48.736;9.092;2023-05-23T10:30:01;9.63;;;8.73;;
8913;SDS011;4492;48.736;9.092;2023-05-23T10:32:27;12.80;;;9.40;;
8913;SDS011;4492;48.736;9.092;2023-05-23T10:40:57;11.93;;;10.47;;
8913;SDS011;4492;48.736;9.092;2023-05-23T10:46:53;10.27;;;9.27;;
8913;SDS011;4492;48.736;9.092;2023-05-23T10:49:25;10.37;;;9.20;;
8913;SDS011;4492;48.736;9.092;2023-05-23T10:52:04;10.63;;;9.53;;
8913;SDS011;4492;48.736;9.092;2023-05-23T10:54:34;10.87;;;9.60;;
8913;SDS011;4492;48.736;9.092;2023-05-23T10:57:03;11.73;;;9.93;;
8913;SDS011;4492;48.736;9.092;2023-05-23T10:59:29;12.97;;;10.03;;
8913;SDS011;4492;48.736;9.092;2023-05-23T11:01:55;10.13;;;9.13;;
8913;SDS011;4492;48.736;9.092;2023-05-23T11:04:28;9.83;;;8.83;;
8913;SDS011;4492;48.736;9.092;2023-05-23T11:06:54;9.47;;;8.67;;
8913;SDS011;4492;48.736;9.092;2023-05-23T11:09:21;12.50;;;9.17;;
8913;SDS011;4492;48.736;9.092;2023-05-23T11:14:19;10.70;;;9.60;;
8913;SDS011;4492;48.736;9.092;2023-05-23T11:16:55;13.03;;;8.97;;
8913;SDS011;4492;48.736;9.092;2023-05-23T11:19:21;11.97;;;10.67;;
8913;SDS011;4492;48.736;9.092;2023-05-23T11:24:21;12.33;;;10.53;;
8913;SDS011;4492;48.736;9.092;2023-05-23T11:27:10;10.50;;;9.50;;
8913;SDS011;4492;48.736;9.092;2023-05-23T11:29:36;10.53;;;9.43;;
8913;SDS011;4492;48.736;9.092;2023-05-23T11:32:08;11.37;;;10.17;;
8913;SDS011;4492;48.736;9.092;2023-05-23T11:34:38;10.73;;;9.47;;
8913;SDS011;4492;48.736;9.092;2023-05-23T11:37:04;11.67;;;10.17;;
8913;SDS011;4492;48.736;9.092;2023-05-23T11:39:30;13.60;;;11.37;;
8913;SDS011;4492;48.736;9.092;2023-05-23T11:41:59;10.80;;;9.70;;
8913;SDS011;4492;48.736;9.092;2023-05-23T11:44:25;11.30;;;10.20;;
8913;SDS011;4492;48.736;9.092;2023-05-23T11:47:04;12.77;;;11.57;;
8913;SDS011;4492;48.736;9.092;2023-05-23T11:49:31;14.60;;;11.90;;
8913;SDS011;4492;48.736;9.092;2023-05-23T11:52:00;12.80;;;11.17;;
8913;SDS011;4492;48.736;9.092;2023-05-23T11:54:26;12.07;;;10.80;;
8913;SDS011;4492;48.736;9.092;2023-05-23T11:56:53;13.50;;;11.23;;
8913;SDS011;4492;48.736;9.092;2023-05-23T11:59:20;13.13;;;10.60;;
8913;SDS011;4492;48.736;9.092;2023-05-23T12:01:50;12.27;;;10.97;;
8913;SDS011;4492;48.736;9.092;2023-05-23T12:04:16;11.37;;;10.13;;
8913;SDS011;4492;48.736;9.092;2023-05-23T12:06:45;12.27;;;11.07;;
8913;SDS011;4492;48.736;9.092;2023-05-23T12:09:12;12.20;;;10.40;;
8913;SDS011;4492;48.736;9.092;2023-05-23T12:11:38;10.67;;;9.67;;
8913;SDS011;4492;48.736;9.092;2023-05-23T12:14:05;12.67;;;11.40;;
8913;SDS011;4492;48.736;9.092;2023-05-23T12:16:31;12.23;;;11.03;;
8913;SDS011;4492;48.736;9.092;2023-05-23T12:18:58;12.33;;;10.20;;
8913;SDS011;4492;48.736;9.092;2023-05-23T12:21:24;11.87;;;10.67;;
8913;SDS011;4492;48.736;9.092;2023-05-23T12:23:51;11.73;;;10.50;;
8913;SDS011;4492;48.736;9.092;2023-05-23T12:26:17;9.87;;;8.87;;
8913;SDS011;4492;48.736;9.092;2023-05-23T12:28:43;9.77;;;7.93;;
8913;SDS011;4492;48.736;9.092;2023-05-23T12:31:10;8.30;;;7.50;;
8913;SDS011;4492;48.736;9.092;2023-05-23T12:33:40;9.83;;;8.23;;
8913;SDS011;4492;48.736;9.092;2023-05-23T12:36:10;7.77;;;7.07;;
8913;SDS011;4492;48.736;9.092;2023-05-23T12:38:36;9.37;;;7.60;;
8913;SDS011;4492;48.736;9.092;2023-05-23T12:41:11;9.07;;;7.23;;
8913;SDS011;4492;48.736;9.092;2023-05-23T12:43:39;8.03;;;7.23;;
8913;SDS011;4492;48.736;9.092;2023-05-23T12:46:05;7.10;;;6.40;;
8913;SDS011;4492;48.736;9.092;2023-05-23T12:48:32;7.03;;;6.43;;
8913;SDS011;4492;48.736;9.092;2023-05-23T12:50:58;6.40;;;5.90;;
8913;SDS011;4492;48.736;9.092;2023-05-23T12:53:24;7.13;;;6.53;;
8913;SDS011;4492;48.736;9.092;2023-05-23T12:55:50;6.20;;;5.70;;
8913;SDS011;4492;48.736;9.092;2023-05-23T12:58:16;6.53;;;6.03;;
8913;SDS011;4492;48.736;9.092;2023-05-23T13:00:42;6.30;;;5.80;;
8913;SDS011;4492;48.736;9.092;2023-05-23T13:03:07;5.97;;;5.47;;
8913;SDS011;4492;48.736;9.092;2023-05-23T13:05:33;6.40;;;5.80;;
8913;SDS011;4492;48.736;9.092;2023-05-23T13:07:58;6.40;;;5.80;;
8913;SDS011;4492;48.736;9.092;2023-05-23T13:10:24;7.73;;;5.97;;
8913;SDS011;4492;48.736;9.092;2023-05-23T13:12:50;6.03;;;5.20;;
8913;SDS011;4492;48.736;9.092;2023-05-23T13:15:16;5.60;;;5.20;;
8913;SDS011;4492;48.736;9.092;2023-05-23T13:17:41;6.50;;;6.00;;
8913;SDS011;4492;48.736;9.092;2023-05-23T13:20:07;5.73;;;5.23;;
8913;SDS011;4492;48.736;9.092;2023-05-23T13:22:33;6.43;;;4.83;;
8913;SDS011;4492;48.736;9.092;2023-05-23T13:24:59;5.50;;;5.00;;
8913;SDS011;4492;48.736;9.092;2023-05-23T13:27:24;5.23;;;4.83;;
8913;SDS011;4492;48.736;9.092;2023-05-23T13:29:50;5.30;;;4.90;;
8913;SDS011;4492;48.736;9.092;2023-05-23T13:32:16;5.40;;;5.00;;
8913;SDS011;4492;48.736;9.092;2023-05-23T13:34:41;4.90;;;4.50;;
8913;SDS011;4492;48.736;9.092;2023-05-23T13:37:07;5.33;;;4.83;;
8913;SDS011;4492;48.736;9.092;2023-05-23T13:39:33;5.80;;;5.30;;
8913;SDS011;4492;48.736;9.092;2023-05-23T13:41:58;5.93;;;5.33;;
8913;SDS011;4492;48.736;9.092;2023-05-23T13:44:24;6.60;;;6.00;;
8913;SDS011;4492;48.736;9.092;2023-05-23T13:46:49;6.77;;;5.30;;
8913;SDS011;4492;48.736;9.092;2023-05-23T13:49:15;5.40;;;5.00;;
8913;SDS011;4492;48.736;9.092;2023-05-23T13:51:40;5.10;;;4.70;;
8913;SDS011;4492;48.736;9.092;2023-05-23T13:54:07;5.97;;;5.07;;
8913;SDS011;4492;48.736;9.092;2023-05-23T13:56:33;6.03;;;5.30;;
8913;SDS011;4492;48.736;9.092;2023-05-23T13:58:58;5.33;;;4.90;;
8913;SDS011;4492;48.736;9.092;2023-05-23T14:01:24;5.13;;;4.60;;
8913;SDS011;4492;48.736;9.092;2023-05-23T14:03:49;4.60;;;4.30;;
8913;SDS011;4492;48.736;9.092;2023-05-23T14:06:15;4.90;;;4.33;;
8913;SDS011;4492;48.736;9.092;2023-05-23T14:08:41;4.17;;;3.87;;
8913;SDS011;4492;48.736;9.092;2023-05-23T14:11:07;6.27;;;4.70;;
8913;SDS011;4492;48.736;9.092;2023-05-23T14:13:32;5.73;;;3.87;;
8913;SDS011;4492;48.736;9.092;2023-05-23T14:15:58;6.10;;;4.67;;
8913;SDS011;4492;48.736;9.092;2023-05-23T14:18:23;5.57;;;5.07;;
8913;SDS011;4492;48.736;9.092;2023-05-23T14:20:49;4.50;;;4.20;;
8913;SDS011;4492;48.736;9.092;2023-05-23T14:23:14;4.93;;;4.53;;
8913;SDS011;4492;48.736;9.092;2023-05-23T14:25:40;4.73;;;4.43;;
8913;SDS011;4492;48.736;9.092;2023-05-23T14:28:06;4.83;;;4.30;;
8913;SDS011;4492;48.736;9.092;2023-05-23T14:30:31;4.30;;;4.00;;
8913;SDS011;4492;48.736;9.092;2023-05-23T14:32:57;5.73;;;4.87;;
8913;SDS011;4492;48.736;9.092;2023-05-23T14:35:22;4.60;;;4.30;;
8913;SDS011;4492;48.736;9.092;2023-05-23T14:37:49;7.10;;;5.50;;
8913;SDS011;4492;48.736;9.092;2023-05-23T14:40:15;6.20;;;4.33;;
8913;SDS011;4492;48.736;9.092;2023-05-23T14:42:40;5.90;;;5.30;;
8913;SDS011;4492;48.736;9.092;2023-05-23T14:45:06;6.20;;;5.20;;
8913;SDS011;4492;48.736;9.092;2023-05-23T14:47:32;5.03;;;4.63;;
8913;SDS011;4492;48.736;9.092;2023-05-23T14:49:59;6.17;;;5.67;;
8913;SDS011;4492;48.736;9.092;2023-05-23T14:52:24;5.70;;;5.10;;
8913;SDS011;4492;48.736;9.092;2023-05-23T14:54:50;5.60;;;5.10;;
8913;SDS011;4492;48.736;9.092;2023-05-23T14:57:16;6.07;;;4.93;;
8913;SDS011;4492;48.736;9.092;2023-05-23T14:59:41;5.30;;;4.80;;
8913;SDS011;4492;48.736;9.092;2023-05-23T15:02:07;5.57;;;4.67;;
8913;SDS011;4492;48.736;9.092;2023-05-23T15:04:32;4.33;;;3.93;;
8913;SDS011;4492;48.736;9.092;2023-05-23T15:06:59;4.73;;;4.30;;